Aviation Digital Data Service (ADDS)

Output produced by METARs form (2151 UTC 19 February 2018)
found at http://www.aviationweather.gov/adds/metars/
 
LDDU 192130Z 07009KT 9999 OVC016 08/08 Q1010
TAF LDDU 191725Z 1918/2018 08008KT 9999 -RA FEW015 BKN025 TX11/2012Z TN06/1921Z 
     TEMPO 1918/2018 RA 
     BECMG 2006/2008 14015KT BKN014 
     PROB30 
     TEMPO 2012/2018 12020G30KT
       
LDOS 192130Z 10011KT 9999 -RA BKN010 OVC023 01/01 Q1016
TAF AMD LDOS 192058Z 1920/2018 11012KT 5000 -SN OVC014 TX02/2013Z TNM01/2005Z 
     TEMPO 1921/2018 1500 OVC007 
     PROB30 
     TEMPO 2000/2018 0600 SN VV003
       
LDPL 192130Z 05012KT 9999 BKN037 04/M03 Q1012 NOSIG
TAF LDPL 191725Z 1918/2018 06015KT 9999 BKN040 TX07/2012Z TN02/2005Z 
     BECMG 1920/1922 05010KT
       
LDRI 192130Z 05012KT 360V100 9999 FEW043 SCT075 03/M05 Q1013
TAF LDRI 191725Z 1918/2018 05010KT 9999 FEW030 BKN050 TX06/2012Z TN02/2005Z 
     PROB40 
     TEMPO 2015/2018 05015G30KT
       
LDDU 192130Z 07009KT 9999 OVC016 08/08 Q1010
TAF LDDU 191725Z 1918/2018 08008KT 9999 -RA FEW015 BKN025 TX11/2012Z TN06/1921Z 
     TEMPO 1918/2018 RA 
     BECMG 2006/2008 14015KT BKN014 
     PROB30 
     TEMPO 2012/2018 12020G30KT
       
LDOS 192130Z 10011KT 9999 -RA BKN010 OVC023 01/01 Q1016
TAF AMD LDOS 192058Z 1920/2018 11012KT 5000 -SN OVC014 TX02/2013Z TNM01/2005Z 
     TEMPO 1921/2018 1500 OVC007 
     PROB30 
     TEMPO 2000/2018 0600 SN VV003
       
LDPL 192130Z 05012KT 9999 BKN037 04/M03 Q1012 NOSIG
TAF LDPL 191725Z 1918/2018 06015KT 9999 BKN040 TX07/2012Z TN02/2005Z 
     BECMG 1920/1922 05010KT
       
LDRI 192130Z 05012KT 360V100 9999 FEW043 SCT075 03/M05 Q1013
TAF LDRI 191725Z 1918/2018 05010KT 9999 FEW030 BKN050 TX06/2012Z TN02/2005Z 
     PROB40 
     TEMPO 2015/2018 05015G30KT
       
LDSP 192130Z AUTO 35008KT 9999 RA BKN017/// OVC019/// 06/05 Q1009
TAF LDSP 191725Z 1918/2018 02010KT 9999 -RA FEW020 BKN040 TX10/2012Z TN05/2000Z 
     TEMPO 1918/2018 RA 
     BECMG 2008/2010 10012KT 
     PROB40 
     TEMPO 2010/2013 22010KT 4000 SHRA FEW020TCU BKN030 
     BECMG 2013/2015 32006KT
       
LDZA 192130Z VRB02KT 6000 -SN BKN020 OVC032 00/M01 Q1016 R05/////// TEMPO 4000 SN
TAF COR LDZA 191947Z 1918/2018 06007KT 6000 SCT010 OVC030 TX02/1918Z TN00/2005Z 
     TEMPO 1919/2014 1500 -SN OVC008 
     PROB30 
     TEMPO 1919/2014 0600 SN VV003 
     BECMG 2012/2014 1500 -SN OVC008 
     TEMPO 2014/2018 0600 SN VV003 
     PROB40 
     TEMPO 2015/2018 04014KT
       
LDZD 192130Z 07004KT 030V100 9999 FEW015 OVC033 02/01 Q1011
TAF LDZD 191725Z 1918/2018 08008KT 9999 -RA FEW020 BKN040 TX05/2015Z TN01/2006Z 
     TEMPO 2000/2018 RA 
     BECMG 2005/2007 04012KT 
     PROB30 
     TEMPO 2006/2009 4000 RASN BKN014
       
LDSP 192130Z AUTO 35008KT 9999 RA BKN017/// OVC019/// 06/05 Q1009
TAF LDSP 191725Z 1918/2018 02010KT 9999 -RA FEW020 BKN040 TX10/2012Z TN05/2000Z 
     TEMPO 1918/2018 RA 
     BECMG 2008/2010 10012KT 
     PROB40 
     TEMPO 2010/2013 22010KT 4000 SHRA FEW020TCU BKN030 
     BECMG 2013/2015 32006KT
       
LDZD 192130Z 07004KT 030V100 9999 FEW015 OVC033 02/01 Q1011
TAF LDZD 191725Z 1918/2018 08008KT 9999 -RA FEW020 BKN040 TX05/2015Z TN01/2006Z 
     TEMPO 2000/2018 RA 
     BECMG 2005/2007 04012KT 
     PROB30 
     TEMPO 2006/2009 4000 RASN BKN014
       
LDZA 192130Z VRB02KT 6000 -SN BKN020 OVC032 00/M01 Q1016 R05/////// TEMPO 4000 SN
TAF COR LDZA 191947Z 1918/2018 06007KT 6000 SCT010 OVC030 TX02/1918Z TN00/2005Z 
     TEMPO 1919/2014 1500 -SN OVC008 
     PROB30 
     TEMPO 1919/2014 0600 SN VV003 
     BECMG 2012/2014 1500 -SN OVC008 
     TEMPO 2014/2018 0600 SN VV003 
     PROB40 
     TEMPO 2015/2018 04014KT